sensor_id;sensor_type;location;lat;lon;timestamp;P1;durP1;ratioP1;P2;durP2;ratioP2
46230;SDS011;31949;51.404;-0.038;2023-05-23T00:02:14;13.02;;;6.95;;
46230;SDS011;31949;51.404;-0.038;2023-05-23T00:04:42;12.23;;;7.10;;
46230;SDS011;31949;51.404;-0.038;2023-05-23T00:07:10;13.18;;;6.43;;
46230;SDS011;31949;51.404;-0.038;2023-05-23T00:09:37;11.48;;;7.05;;
46230;SDS011;31949;51.404;-0.038;2023-05-23T00:12:04;13.20;;;7.68;;
46230;SDS011;31949;51.404;-0.038;2023-05-23T00:14:32;9.32;;;7.15;;
46230;SDS011;31949;51.404;-0.038;2023-05-23T00:17:01;9.00;;;5.75;;
46230;SDS011;31949;51.404;-0.038;2023-05-23T00:19:28;12.77;;;6.95;;
46230;SDS011;31949;51.404;-0.038;2023-05-23T00:21:56;11.48;;;6.50;;
46230;SDS011;31949;51.404;-0.038;2023-05-23T00:24:24;16.38;;;7.65;;
46230;SDS011;31949;51.404;-0.038;2023-05-23T00:26:51;13.80;;;6.35;;
46230;SDS011;31949;51.404;-0.038;2023-05-23T00:29:18;10.45;;;6.82;;
46230;SDS011;31949;51.404;-0.038;2023-05-23T00:31:46;11.77;;;7.78;;
46230;SDS011;31949;51.404;-0.038;2023-05-23T00:34:14;19.58;;;8.80;;
46230;SDS011;31949;51.404;-0.038;2023-05-23T00:36:43;13.35;;;7.78;;
46230;SDS011;31949;51.404;-0.038;2023-05-23T00:39:13;16.20;;;7.82;;
46230;SDS011;31949;51.404;-0.038;2023-05-23T00:41:48;11.65;;;6.97;;
46230;SDS011;31949;51.404;-0.038;2023-05-23T00:44:18;14.77;;;8.05;;
46230;SDS011;31949;51.404;-0.038;2023-05-23T00:46:51;12.98;;;6.90;;
46230;SDS011;31949;51.404;-0.038;2023-05-23T00:49:22;10.85;;;7.20;;
46230;SDS011;31949;51.404;-0.038;2023-05-23T00:51:50;15.13;;;7.97;;
46230;SDS011;31949;51.404;-0.038;2023-05-23T00:54:21;16.92;;;7.25;;
46230;SDS011;31949;51.404;-0.038;2023-05-23T00:56:53;15.38;;;8.80;;
46230;SDS011;31949;51.404;-0.038;2023-05-23T00:59:21;10.73;;;5.97;;
46230;SDS011;31949;51.404;-0.038;2023-05-23T01:01:51;12.93;;;7.82;;
46230;SDS011;31949;51.404;-0.038;2023-05-23T01:04:21;11.80;;;6.93;;
46230;SDS011;31949;51.404;-0.038;2023-05-23T01:06:55;10.45;;;7.10;;
46230;SDS011;31949;51.404;-0.038;2023-05-23T01:09:23;12.90;;;6.68;;
46230;SDS011;31949;51.404;-0.038;2023-05-23T01:14:41;8.73;;;5.85;;
46230;SDS011;31949;51.404;-0.038;2023-05-23T01:17:12;10.75;;;6.30;;
46230;SDS011;31949;51.404;-0.038;2023-05-23T01:22:29;15.68;;;7.47;;
46230;SDS011;31949;51.404;-0.038;2023-05-23T01:25:18;10.30;;;6.53;;
46230;SDS011;31949;51.404;-0.038;2023-05-23T01:28:16;11.40;;;6.60;;
46230;SDS011;31949;51.404;-0.038;2023-05-23T01:30:47;13.55;;;7.65;;
46230;SDS011;31949;51.404;-0.038;2023-05-23T01:33:17;13.00;;;7.22;;
46230;SDS011;31949;51.404;-0.038;2023-05-23T01:35:48;16.83;;;7.95;;
46230;SDS011;31949;51.404;-0.038;2023-05-23T01:38:15;9.82;;;6.30;;
46230;SDS011;31949;51.404;-0.038;2023-05-23T01:40:43;12.27;;;7.30;;
46230;SDS011;31949;51.404;-0.038;2023-05-23T01:43:10;14.02;;;7.47;;
46230;SDS011;31949;51.404;-0.038;2023-05-23T01:45:37;14.52;;;7.50;;
46230;SDS011;31949;51.404;-0.038;2023-05-23T01:48:06;15.05;;;7.65;;
46230;SDS011;31949;51.404;-0.038;2023-05-23T01:50:34;10.40;;;7.13;;
46230;SDS011;31949;51.404;-0.038;2023-05-23T01:53:02;11.30;;;6.00;;
46230;SDS011;31949;51.404;-0.038;2023-05-23T01:55:31;12.10;;;7.47;;
46230;SDS011;31949;51.404;-0.038;2023-05-23T01:57:58;9.57;;;6.55;;
46230;SDS011;31949;51.404;-0.038;2023-05-23T02:00:27;11.80;;;7.00;;
46230;SDS011;31949;51.404;-0.038;2023-05-23T02:02:54;11.38;;;6.95;;
46230;SDS011;31949;51.404;-0.038;2023-05-23T02:05:22;9.57;;;6.07;;
46230;SDS011;31949;51.404;-0.038;2023-05-23T02:07:49;12.73;;;6.82;;
46230;SDS011;31949;51.404;-0.038;2023-05-23T02:10:16;11.60;;;7.35;;
46230;SDS011;31949;51.404;-0.038;2023-05-23T02:12:45;9.30;;;7.15;;
46230;SDS011;31949;51.404;-0.038;2023-05-23T02:15:12;12.63;;;6.97;;
46230;SDS011;31949;51.404;-0.038;2023-05-23T02:17:39;11.18;;;7.38;;
46230;SDS011;31949;51.404;-0.038;2023-05-23T02:20:07;13.52;;;6.30;;
46230;SDS011;31949;51.404;-0.038;2023-05-23T02:22:35;11.07;;;6.70;;
46230;SDS011;31949;51.404;-0.038;2023-05-23T02:25:03;15.18;;;6.63;;
46230;SDS011;31949;51.404;-0.038;2023-05-23T02:27:31;10.25;;;6.63;;
46230;SDS011;31949;51.404;-0.038;2023-05-23T02:29:58;10.85;;;6.35;;
46230;SDS011;31949;51.404;-0.038;2023-05-23T02:32:26;10.40;;;6.13;;
46230;SDS011;31949;51.404;-0.038;2023-05-23T02:34:55;12.15;;;6.18;;
46230;SDS011;31949;51.404;-0.038;2023-05-23T02:37:23;9.45;;;6.65;;
46230;SDS011;31949;51.404;-0.038;2023-05-23T02:39:50;9.63;;;5.90;;
46230;SDS011;31949;51.404;-0.038;2023-05-23T02:42:17;8.95;;;5.47;;
46230;SDS011;31949;51.404;-0.038;2023-05-23T02:44:44;13.02;;;7.22;;
46230;SDS011;31949;51.404;-0.038;2023-05-23T02:47:12;10.35;;;6.32;;
46230;SDS011;31949;51.404;-0.038;2023-05-23T02:49:39;10.23;;;6.50;;
46230;SDS011;31949;51.404;-0.038;2023-05-23T02:52:06;13.38;;;6.82;;
46230;SDS011;31949;51.404;-0.038;2023-05-23T02:54:33;10.85;;;6.45;;
46230;SDS011;31949;51.404;-0.038;2023-05-23T02:57:01;11.88;;;6.40;;
46230;SDS011;31949;51.404;-0.038;2023-05-23T02:59:30;9.60;;;6.55;;
46230;SDS011;31949;51.404;-0.038;2023-05-23T03:01:57;10.00;;;5.97;;
46230;SDS011;31949;51.404;-0.038;2023-05-23T03:04:25;10.65;;;6.88;;
46230;SDS011;31949;51.404;-0.038;2023-05-23T03:06:53;10.27;;;5.63;;
46230;SDS011;31949;51.404;-0.038;2023-05-23T03:09:20;11.80;;;6.72;;
46230;SDS011;31949;51.404;-0.038;2023-05-23T03:11:48;13.90;;;8.07;;
46230;SDS011;31949;51.404;-0.038;2023-05-23T03:14:15;12.32;;;6.80;;
46230;SDS011;31949;51.404;-0.038;2023-05-23T03:16:42;12.80;;;6.07;;
46230;SDS011;31949;51.404;-0.038;2023-05-23T03:19:11;9.32;;;6.50;;
46230;SDS011;31949;51.404;-0.038;2023-05-23T03:21:38;9.13;;;5.72;;
46230;SDS011;31949;51.404;-0.038;2023-05-23T03:24:06;9.82;;;5.65;;
46230;SDS011;31949;51.404;-0.038;2023-05-23T03:26:33;9.05;;;6.00;;
46230;SDS011;31949;51.404;-0.038;2023-05-23T03:29:02;13.77;;;6.30;;
46230;SDS011;31949;51.404;-0.038;2023-05-23T03:31:29;14.23;;;5.90;;
46230;SDS011;31949;51.404;-0.038;2023-05-23T03:33:56;8.77;;;5.75;;
46230;SDS011;31949;51.404;-0.038;2023-05-23T03:36:23;9.20;;;5.25;;
46230;SDS011;31949;51.404;-0.038;2023-05-23T03:38:51;7.78;;;5.75;;
46230;SDS011;31949;51.404;-0.038;2023-05-23T03:41:19;10.35;;;5.75;;
46230;SDS011;31949;51.404;-0.038;2023-05-23T03:43:47;7.75;;;5.45;;
46230;SDS011;31949;51.404;-0.038;2023-05-23T03:46:14;8.48;;;5.40;;
46230;SDS011;31949;51.404;-0.038;2023-05-23T03:48:42;11.00;;;6.10;;
46230;SDS011;31949;51.404;-0.038;2023-05-23T03:51:09;8.75;;;5.15;;
46230;SDS011;31949;51.404;-0.038;2023-05-23T03:53:39;8.30;;;5.75;;
46230;SDS011;31949;51.404;-0.038;2023-05-23T03:56:07;8.02;;;5.10;;
46230;SDS011;31949;51.404;-0.038;2023-05-23T03:58:34;9.10;;;6.38;;
46230;SDS011;31949;51.404;-0.038;2023-05-23T04:01:07;11.52;;;5.70;;
46230;SDS011;31949;51.404;-0.038;2023-05-23T04:03:34;8.90;;;5.50;;
46230;SDS011;31949;51.404;-0.038;2023-05-23T04:06:02;9.95;;;5.05;;
46230;SDS011;31949;51.404;-0.038;2023-05-23T04:08:30;7.95;;;4.75;;
46230;SDS011;31949;51.404;-0.038;2023-05-23T04:11:00;7.45;;;5.43;;
46230;SDS011;31949;51.404;-0.038;2023-05-23T04:13:31;9.25;;;4.78;;
46230;SDS011;31949;51.404;-0.038;2023-05-23T04:15:59;7.63;;;4.85;;
46230;SDS011;31949;51.404;-0.038;2023-05-23T04:18:27;9.05;;;4.70;;
46230;SDS011;31949;51.404;-0.038;2023-05-23T04:20:55;11.32;;;5.78;;
46230;SDS011;31949;51.404;-0.038;2023-05-23T04:23:23;6.25;;;4.53;;
46230;SDS011;31949;51.404;-0.038;2023-05-23T04:25:52;8.02;;;4.03;;
46230;SDS011;31949;51.404;-0.038;2023-05-23T04:28:24;6.60;;;4.20;;
46230;SDS011;31949;51.404;-0.038;2023-05-23T04:30:53;9.95;;;4.35;;
46230;SDS011;31949;51.404;-0.038;2023-05-23T04:33:24;8.60;;;4.70;;
46230;SDS011;31949;51.404;-0.038;2023-05-23T04:35:54;6.60;;;4.10;;
46230;SDS011;31949;51.404;-0.038;2023-05-23T04:38:22;8.25;;;4.70;;
46230;SDS011;31949;51.404;-0.038;2023-05-23T04:40:50;8.45;;;3.78;;
46230;SDS011;31949;51.404;-0.038;2023-05-23T04:43:37;6.97;;;4.07;;
46230;SDS011;31949;51.404;-0.038;2023-05-23T04:46:37;6.22;;;4.63;;
46230;SDS011;31949;51.404;-0.038;2023-05-23T04:49:17;9.48;;;4.35;;
46230;SDS011;31949;51.404;-0.038;2023-05-23T04:51:48;5.68;;;3.65;;
46230;SDS011;31949;51.404;-0.038;2023-05-23T04:54:25;6.25;;;4.38;;
46230;SDS011;31949;51.404;-0.038;2023-05-23T04:56:54;6.47;;;4.15;;
46230;SDS011;31949;51.404;-0.038;2023-05-23T04:59:23;9.20;;;4.13;;
46230;SDS011;31949;51.404;-0.038;2023-05-23T05:01:51;8.52;;;4.18;;
46230;SDS011;31949;51.404;-0.038;2023-05-23T05:04:19;8.05;;;4.50;;
46230;SDS011;31949;51.404;-0.038;2023-05-23T05:06:49;9.80;;;4.53;;
46230;SDS011;31949;51.404;-0.038;2023-05-23T05:09:18;9.48;;;3.92;;
46230;SDS011;31949;51.404;-0.038;2023-05-23T05:11:45;9.18;;;4.05;;
46230;SDS011;31949;51.404;-0.038;2023-05-23T05:14:13;5.43;;;3.13;;
46230;SDS011;31949;51.404;-0.038;2023-05-23T05:16:40;7.65;;;4.32;;
46230;SDS011;31949;51.404;-0.038;2023-05-23T05:19:09;8.93;;;3.88;;
46230;SDS011;31949;51.404;-0.038;2023-05-23T05:21:36;6.53;;;4.22;;
46230;SDS011;31949;51.404;-0.038;2023-05-23T05:24:04;11.38;;;4.38;;
46230;SDS011;31949;51.404;-0.038;2023-05-23T05:26:31;12.25;;;4.28;;
46230;SDS011;31949;51.404;-0.038;2023-05-23T05:28:59;8.98;;;3.33;;
46230;SDS011;31949;51.404;-0.038;2023-05-23T05:31:26;7.10;;;3.95;;
46230;SDS011;31949;51.404;-0.038;2023-05-23T05:33:55;12.63;;;4.20;;
46230;SDS011;31949;51.404;-0.038;2023-05-23T05:36:22;9.75;;;3.42;;
46230;SDS011;31949;51.404;-0.038;2023-05-23T05:38:49;7.18;;;3.65;;
46230;SDS011;31949;51.404;-0.038;2023-05-23T05:41:18;8.93;;;2.92;;
46230;SDS011;31949;51.404;-0.038;2023-05-23T05:43:48;18.02;;;4.32;;
46230;SDS011;31949;51.404;-0.038;2023-05-23T05:46:16;8.25;;;4.05;;
46230;SDS011;31949;51.404;-0.038;2023-05-23T05:48:44;7.80;;;3.25;;
46230;SDS011;31949;51.404;-0.038;2023-05-23T05:51:12;8.50;;;3.47;;
46230;SDS011;31949;51.404;-0.038;2023-05-23T05:53:41;10.02;;;3.05;;
46230;SDS011;31949;51.404;-0.038;2023-05-23T05:56:08;9.45;;;3.65;;
46230;SDS011;31949;51.404;-0.038;2023-05-23T05:58:37;8.32;;;3.35;;
46230;SDS011;31949;51.404;-0.038;2023-05-23T06:01:06;8.68;;;3.33;;
46230;SDS011;31949;51.404;-0.038;2023-05-23T06:03:34;15.18;;;3.38;;
46230;SDS011;31949;51.404;-0.038;2023-05-23T06:06:02;10.60;;;3.38;;
46230;SDS011;31949;51.404;-0.038;2023-05-23T06:08:29;11.60;;;3.70;;
46230;SDS011;31949;51.404;-0.038;2023-05-23T06:10:56;10.23;;;3.35;;
46230;SDS011;31949;51.404;-0.038;2023-05-23T06:13:25;9.32;;;4.05;;
46230;SDS011;31949;51.404;-0.038;2023-05-23T06:15:53;8.02;;;2.85;;
46230;SDS011;31949;51.404;-0.038;2023-05-23T06:18:21;9.68;;;3.13;;
46230;SDS011;31949;51.404;-0.038;2023-05-23T06:20:49;10.85;;;3.92;;
46230;SDS011;31949;51.404;-0.038;2023-05-23T06:23:18;8.45;;;3.83;;
46230;SDS011;31949;51.404;-0.038;2023-05-23T06:25:46;8.02;;;3.08;;
46230;SDS011;31949;51.404;-0.038;2023-05-23T06:28:13;11.02;;;3.25;;
46230;SDS011;31949;51.404;-0.038;2023-05-23T06:30:41;15.18;;;4.45;;
46230;SDS011;31949;51.404;-0.038;2023-05-23T06:33:08;7.97;;;3.50;;
46230;SDS011;31949;51.404;-0.038;2023-05-23T06:35:37;13.93;;;3.67;;
46230;SDS011;31949;51.404;-0.038;2023-05-23T06:38:04;7.47;;;3.45;;
46230;SDS011;31949;51.404;-0.038;2023-05-23T06:40:32;8.88;;;2.53;;
46230;SDS011;31949;51.404;-0.038;2023-05-23T06:42:59;10.48;;;3.53;;
46230;SDS011;31949;51.404;-0.038;2023-05-23T06:45:52;7.47;;;2.63;;
46230;SDS011;31949;51.404;-0.038;2023-05-23T06:48:20;9.32;;;3.97;;
46230;SDS011;31949;51.404;-0.038;2023-05-23T06:50:47;5.85;;;2.97;;
46230;SDS011;31949;51.404;-0.038;2023-05-23T06:53:15;9.18;;;3.72;;
46230;SDS011;31949;51.404;-0.038;2023-05-23T06:55:46;9.70;;;3.33;;
46230;SDS011;31949;51.404;-0.038;2023-05-23T06:58:16;6.57;;;3.90;;
46230;SDS011;31949;51.404;-0.038;2023-05-23T07:00:43;10.13;;;3.50;;
46230;SDS011;31949;51.404;-0.038;2023-05-23T07:03:22;8.05;;;3.20;;
46230;SDS011;31949;51.404;-0.038;2023-05-23T07:05:49;6.75;;;2.53;;
46230;SDS011;31949;51.404;-0.038;2023-05-23T07:08:18;7.85;;;3.22;;
46230;SDS011;31949;51.404;-0.038;2023-05-23T07:10:57;7.00;;;2.97;;
46230;SDS011;31949;51.404;-0.038;2023-05-23T07:13:48;5.03;;;2.60;;
46230;SDS011;31949;51.404;-0.038;2023-05-23T07:16:34;13.25;;;2.90;;
46230;SDS011;31949;51.404;-0.038;2023-05-23T07:19:04;10.20;;;2.38;;
46230;SDS011;31949;51.404;-0.038;2023-05-23T07:21:37;6.72;;;2.20;;
46230;SDS011;31949;51.404;-0.038;2023-05-23T07:24:05;6.97;;;2.50;;
46230;SDS011;31949;51.404;-0.038;2023-05-23T07:26:33;6.32;;;2.53;;
46230;SDS011;31949;51.404;-0.038;2023-05-23T07:29:00;6.63;;;3.15;;
46230;SDS011;31949;51.404;-0.038;2023-05-23T07:31:28;8.80;;;3.78;;
46230;SDS011;31949;51.404;-0.038;2023-05-23T07:33:57;11.48;;;3.17;;
46230;SDS011;31949;51.404;-0.038;2023-05-23T07:36:31;9.25;;;2.53;;
46230;SDS011;31949;51.404;-0.038;2023-05-23T07:39:02;5.93;;;2.80;;
46230;SDS011;31949;51.404;-0.038;2023-05-23T07:41:31;5.55;;;2.92;;
46230;SDS011;31949;51.404;-0.038;2023-05-23T07:43:58;7.40;;;2.58;;
46230;SDS011;31949;51.404;-0.038;2023-05-23T07:46:25;7.93;;;2.63;;
46230;SDS011;31949;51.404;-0.038;2023-05-23T07:48:53;4.75;;;2.30;;
46230;SDS011;31949;51.404;-0.038;2023-05-23T07:51:21;9.55;;;2.78;;
46230;SDS011;31949;51.404;-0.038;2023-05-23T07:53:50;5.60;;;1.90;;
46230;SDS011;31949;51.404;-0.038;2023-05-23T07:56:19;7.75;;;2.40;;
46230;SDS011;31949;51.404;-0.038;2023-05-23T07:58:47;6.45;;;2.65;;
46230;SDS011;31949;51.404;-0.038;2023-05-23T08:01:14;7.70;;;2.60;;
46230;SDS011;31949;51.404;-0.038;2023-05-23T08:06:31;3.65;;;2.25;;
46230;SDS011;31949;51.404;-0.038;2023-05-23T08:09:04;6.72;;;2.70;;
46230;SDS011;31949;51.404;-0.038;2023-05-23T08:11:35;8.68;;;2.53;;
46230;SDS011;31949;51.404;-0.038;2023-05-23T08:14:04;7.07;;;1.92;;
46230;SDS011;31949;51.404;-0.038;2023-05-23T08:16:38;6.38;;;2.72;;
46230;SDS011;31949;51.404;-0.038;2023-05-23T08:19:10;7.15;;;2.78;;
46230;SDS011;31949;51.404;-0.038;2023-05-23T08:21:38;5.00;;;1.80;;
46230;SDS011;31949;51.404;-0.038;2023-05-23T08:24:05;3.13;;;2.10;;
46230;SDS011;31949;51.404;-0.038;2023-05-23T08:26:34;8.88;;;2.50;;
46230;SDS011;31949;51.404;-0.038;2023-05-23T08:29:04;9.68;;;2.85;;
46230;SDS011;31949;51.404;-0.038;2023-05-23T08:31:31;6.47;;;2.58;;
46230;SDS011;31949;51.404;-0.038;2023-05-23T08:34:03;8.57;;;2.83;;
46230;SDS011;31949;51.404;-0.038;2023-05-23T08:36:31;5.10;;;2.05;;
46230;SDS011;31949;51.404;-0.038;2023-05-23T08:41:34;10.20;;;2.75;;
46230;SDS011;31949;51.404;-0.038;2023-05-23T08:44:07;7.00;;;2.75;;
46230;SDS011;31949;51.404;-0.038;2023-05-23T08:46:44;7.50;;;2.33;;
46230;SDS011;31949;51.404;-0.038;2023-05-23T08:49:21;8.10;;;2.80;;
46230;SDS011;31949;51.404;-0.038;2023-05-23T08:51:49;7.43;;;2.72;;
46230;SDS011;31949;51.404;-0.038;2023-05-23T08:54:20;7.43;;;2.60;;
46230;SDS011;31949;51.404;-0.038;2023-05-23T08:56:48;6.60;;;1.77;;
46230;SDS011;31949;51.404;-0.038;2023-05-23T08:59:16;9.63;;;2.42;;
46230;SDS011;31949;51.404;-0.038;2023-05-23T09:01:44;6.82;;;2.45;;
46230;SDS011;31949;51.404;-0.038;2023-05-23T09:04:14;8.50;;;3.25;;
46230;SDS011;31949;51.404;-0.038;2023-05-23T09:06:48;5.47;;;2.38;;
46230;SDS011;31949;51.404;-0.038;2023-05-23T09:09:17;8.75;;;2.55;;
46230;SDS011;31949;51.404;-0.038;2023-05-23T09:11:45;6.30;;;2.20;;
46230;SDS011;31949;51.404;-0.038;2023-05-23T09:14:13;8.88;;;2.70;;
46230;SDS011;31949;51.404;-0.038;2023-05-23T09:16:42;6.35;;;2.28;;
46230;SDS011;31949;51.404;-0.038;2023-05-23T09:19:15;7.70;;;2.20;;
46230;SDS011;31949;51.404;-0.038;2023-05-23T09:21:52;6.38;;;2.05;;
46230;SDS011;31949;51.404;-0.038;2023-05-23T09:24:32;5.93;;;2.35;;
46230;SDS011;31949;51.404;-0.038;2023-05-23T09:27:07;9.52;;;2.65;;
46230;SDS011;31949;51.404;-0.038;2023-05-23T09:29:37;6.65;;;2.97;;
46230;SDS011;31949;51.404;-0.038;2023-05-23T09:32:15;4.93;;;2.60;;
46230;SDS011;31949;51.404;-0.038;2023-05-23T09:34:56;11.50;;;2.55;;
46230;SDS011;31949;51.404;-0.038;2023-05-23T09:37:44;9.02;;;2.95;;
46230;SDS011;31949;51.404;-0.038;2023-05-23T09:40:13;6.50;;;1.85;;
46230;SDS011;31949;51.404;-0.038;2023-05-23T09:42:47;9.98;;;2.50;;
46230;SDS011;31949;51.404;-0.038;2023-05-23T09:45:16;5.95;;;2.17;;
46230;SDS011;31949;51.404;-0.038;2023-05-23T09:47:50;6.05;;;2.33;;
46230;SDS011;31949;51.404;-0.038;2023-05-23T09:50:19;11.55;;;2.78;;
46230;SDS011;31949;51.404;-0.038;2023-05-23T09:52:47;10.88;;;2.70;;
46230;SDS011;31949;51.404;-0.038;2023-05-23T09:55:14;6.10;;;2.38;;
46230;SDS011;31949;51.404;-0.038;2023-05-23T09:57:42;8.38;;;2.97;;
46230;SDS011;31949;51.404;-0.038;2023-05-23T10:00:10;6.50;;;2.10;;
46230;SDS011;31949;51.404;-0.038;2023-05-23T10:02:54;8.07;;;2.55;;
46230;SDS011;31949;51.404;-0.038;2023-05-23T10:05:45;8.75;;;3.13;;
46230;SDS011;31949;51.404;-0.038;2023-05-23T10:08:22;11.35;;;3.00;;
46230;SDS011;31949;51.404;-0.038;2023-05-23T10:13:26;10.68;;;2.55;;
46230;SDS011;31949;51.404;-0.038;2023-05-23T10:15:59;5.65;;;2.72;;
46230;SDS011;31949;51.404;-0.038;2023-05-23T10:18:33;8.77;;;2.63;;
46230;SDS011;31949;51.404;-0.038;2023-05-23T10:21:06;8.85;;;3.60;;
46230;SDS011;31949;51.404;-0.038;2023-05-23T10:23:37;4.38;;;2.20;;
46230;SDS011;31949;51.404;-0.038;2023-05-23T10:26:06;5.75;;;2.28;;
46230;SDS011;31949;51.404;-0.038;2023-05-23T10:28:34;6.07;;;2.70;;
46230;SDS011;31949;51.404;-0.038;2023-05-23T10:31:01;9.20;;;2.60;;
46230;SDS011;31949;51.404;-0.038;2023-05-23T10:33:30;5.95;;;2.40;;
46230;SDS011;31949;51.404;-0.038;2023-05-23T10:36:08;5.78;;;2.58;;
46230;SDS011;31949;51.404;-0.038;2023-05-23T10:38:56;6.40;;;2.13;;
46230;SDS011;31949;51.404;-0.038;2023-05-23T10:41:32;4.73;;;2.30;;
46230;SDS011;31949;51.404;-0.038;2023-05-23T10:44:11;6.75;;;2.13;;
46230;SDS011;31949;51.404;-0.038;2023-05-23T10:46:50;6.20;;;2.22;;
46230;SDS011;31949;51.404;-0.038;2023-05-23T10:49:36;9.23;;;2.90;;
46230;SDS011;31949;51.404;-0.038;2023-05-23T10:52:08;5.30;;;1.92;;
46230;SDS011;31949;51.404;-0.038;2023-05-23T10:54:43;7.30;;;2.95;;
46230;SDS011;31949;51.404;-0.038;2023-05-23T10:57:18;7.28;;;2.92;;
46230;SDS011;31949;51.404;-0.038;2023-05-23T10:59:53;9.93;;;3.45;;
46230;SDS011;31949;51.404;-0.038;2023-05-23T11:02:25;6.07;;;2.50;;
46230;SDS011;31949;51.404;-0.038;2023-05-23T11:11:04;6.82;;;2.45;;
46230;SDS011;31949;51.404;-0.038;2023-05-23T11:16:25;7.05;;;1.90;;
46230;SDS011;31949;51.404;-0.038;2023-05-23T11:24:19;4.60;;;1.98;;
46230;SDS011;31949;51.404;-0.038;2023-05-23T11:29:29;5.93;;;2.50;;
46230;SDS011;31949;51.404;-0.038;2023-05-23T11:31:57;8.07;;;2.92;;
46230;SDS011;31949;51.404;-0.038;2023-05-23T11:34:24;7.38;;;2.60;;
46230;SDS011;31949;51.404;-0.038;2023-05-23T11:36:55;8.65;;;3.10;;
46230;SDS011;31949;51.404;-0.038;2023-05-23T11:39:22;8.32;;;2.55;;
46230;SDS011;31949;51.404;-0.038;2023-05-23T11:41:59;4.72;;;2.25;;
46230;SDS011;31949;51.404;-0.038;2023-05-23T11:44:28;7.60;;;2.65;;
46230;SDS011;31949;51.404;-0.038;2023-05-23T11:46:59;6.85;;;2.20;;
46230;SDS011;31949;51.404;-0.038;2023-05-23T11:49:30;5.13;;;1.90;;
46230;SDS011;31949;51.404;-0.038;2023-05-23T11:52:02;8.23;;;2.30;;
46230;SDS011;31949;51.404;-0.038;2023-05-23T11:54:30;7.68;;;2.53;;
46230;SDS011;31949;51.404;-0.038;2023-05-23T11:56:57;5.65;;;2.13;;
46230;SDS011;31949;51.404;-0.038;2023-05-23T11:59:25;8.23;;;2.50;;
46230;SDS011;31949;51.404;-0.038;2023-05-23T12:01:54;7.60;;;3.03;;
46230;SDS011;31949;51.404;-0.038;2023-05-23T12:04:21;4.93;;;2.10;;
46230;SDS011;31949;51.404;-0.038;2023-05-23T12:06:51;5.45;;;2.15;;
46230;SDS011;31949;51.404;-0.038;2023-05-23T12:09:19;8.48;;;2.72;;
46230;SDS011;31949;51.404;-0.038;2023-05-23T12:11:47;8.15;;;2.50;;
46230;SDS011;31949;51.404;-0.038;2023-05-23T12:14:16;6.80;;;3.00;;
46230;SDS011;31949;51.404;-0.038;2023-05-23T12:16:44;5.45;;;2.00;;
46230;SDS011;31949;51.404;-0.038;2023-05-23T12:19:13;8.05;;;2.65;;
46230;SDS011;31949;51.404;-0.038;2023-05-23T12:21:46;5.60;;;2.53;;
46230;SDS011;31949;51.404;-0.038;2023-05-23T12:24:15;4.80;;;2.40;;
46230;SDS011;31949;51.404;-0.038;2023-05-23T12:26:48;14.57;;;3.33;;
46230;SDS011;31949;51.404;-0.038;2023-05-23T12:29:18;8.68;;;3.03;;
46230;SDS011;31949;51.404;-0.038;2023-05-23T12:31:48;8.32;;;2.33;;
46230;SDS011;31949;51.404;-0.038;2023-05-23T12:34:18;6.57;;;2.10;;
46230;SDS011;31949;51.404;-0.038;2023-05-23T12:36:46;5.03;;;1.80;;
46230;SDS011;31949;51.404;-0.038;2023-05-23T12:39:22;5.13;;;2.20;;
46230;SDS011;31949;51.404;-0.038;2023-05-23T12:41:52;9.40;;;2.83;;
46230;SDS011;31949;51.404;-0.038;2023-05-23T12:44:22;4.95;;;1.88;;
46230;SDS011;31949;51.404;-0.038;2023-05-23T12:47:07;7.30;;;2.72;;
46230;SDS011;31949;51.404;-0.038;2023-05-23T12:49:40;7.53;;;2.95;;
46230;SDS011;31949;51.404;-0.038;2023-05-23T12:52:07;5.85;;;2.20;;
46230;SDS011;31949;51.404;-0.038;2023-05-23T12:54:35;6.30;;;2.22;;
46230;SDS011;31949;51.404;-0.038;2023-05-23T12:57:02;4.88;;;1.75;;
46230;SDS011;31949;51.404;-0.038;2023-05-23T12:59:29;10.43;;;2.63;;
46230;SDS011;31949;51.404;-0.038;2023-05-23T13:01:56;5.63;;;2.25;;
46230;SDS011;31949;51.404;-0.038;2023-05-23T13:04:25;9.43;;;2.75;;
46230;SDS011;31949;51.404;-0.038;2023-05-23T13:06:55;10.27;;;2.88;;
46230;SDS011;31949;51.404;-0.038;2023-05-23T13:09:22;6.72;;;2.58;;
46230;SDS011;31949;51.404;-0.038;2023-05-23T13:11:49;4.90;;;2.10;;
46230;SDS011;31949;51.404;-0.038;2023-05-23T13:14:16;6.95;;;3.22;;
46230;SDS011;31949;51.404;-0.038;2023-05-23T13:16:44;7.75;;;2.17;;
46230;SDS011;31949;51.404;-0.038;2023-05-23T13:19:11;6.43;;;2.13;;
46230;SDS011;31949;51.404;-0.038;2023-05-23T13:21:38;5.00;;;2.63;;
46230;SDS011;31949;51.404;-0.038;2023-05-23T13:24:06;8.32;;;2.42;;
46230;SDS011;31949;51.404;-0.038;2023-05-23T13:26:34;7.85;;;2.75;;
46230;SDS011;31949;51.404;-0.038;2023-05-23T13:29:01;7.18;;;2.22;;
46230;SDS011;31949;51.404;-0.038;2023-05-23T13:31:29;6.97;;;2.28;;
46230;SDS011;31949;51.404;-0.038;2023-05-23T13:33:56;3.42;;;2.22;;
46230;SDS011;31949;51.404;-0.038;2023-05-23T13:36:24;5.97;;;2.25;;
46230;SDS011;31949;51.404;-0.038;2023-05-23T13:38:51;4.95;;;2.20;;
46230;SDS011;31949;51.404;-0.038;2023-05-23T13:41:18;6.03;;;2.75;;
46230;SDS011;31949;51.404;-0.038;2023-05-23T13:43:45;7.20;;;2.63;;
46230;SDS011;31949;51.404;-0.038;2023-05-23T13:46:13;7.60;;;2.28;;
46230;SDS011;31949;51.404;-0.038;2023-05-23T13:48:40;7.63;;;2.78;;
46230;SDS011;31949;51.404;-0.038;2023-05-23T13:51:07;5.15;;;2.35;;
46230;SDS011;31949;51.404;-0.038;2023-05-23T13:53:34;3.85;;;2.25;;
46230;SDS011;31949;51.404;-0.038;2023-05-23T13:56:02;6.13;;;2.60;;
46230;SDS011;31949;51.404;-0.038;2023-05-23T13:58:29;4.45;;;2.50;;
46230;SDS011;31949;51.404;-0.038;2023-05-23T14:00:58;7.90;;;2.50;;
46230;SDS011;31949;51.404;-0.038;2023-05-23T14:03:25;5.95;;;2.17;;
46230;SDS011;31949;51.404;-0.038;2023-05-23T14:05:52;5.15;;;2.08;;
46230;SDS011;31949;51.404;-0.038;2023-05-23T14:08:20;6.45;;;2.80;;
46230;SDS011;31949;51.404;-0.038;2023-05-23T14:10:47;4.47;;;2.08;;
46230;SDS011;31949;51.404;-0.038;2023-05-23T14:13:14;6.35;;;2.53;;
46230;SDS011;31949;51.404;-0.038;2023-05-23T14:15:41;9.10;;;2.53;;
46230;SDS011;31949;51.404;-0.038;2023-05-23T14:18:09;6.05;;;2.35;;
46230;SDS011;31949;51.404;-0.038;2023-05-23T14:20:36;5.25;;;2.00;;
46230;SDS011;31949;51.404;-0.038;2023-05-23T14:23:04;5.47;;;2.47;;
46230;SDS011;31949;51.404;-0.038;2023-05-23T14:25:31;7.07;;;2.90;;
46230;SDS011;31949;51.404;-0.038;2023-05-23T14:27:58;5.43;;;2.35;;
46230;SDS011;31949;51.404;-0.038;2023-05-23T14:30:25;5.13;;;1.92;;
46230;SDS011;31949;51.404;-0.038;2023-05-23T14:32:53;7.38;;;2.33;;
46230;SDS011;31949;51.404;-0.038;2023-05-23T14:35:20;6.43;;;2.15;;
46230;SDS011;31949;51.404;-0.038;2023-05-23T14:37:51;7.03;;;2.42;;
46230;SDS011;31949;51.404;-0.038;2023-05-23T14:40:19;5.50;;;2.58;;
46230;SDS011;31949;51.404;-0.038;2023-05-23T14:42:46;7.75;;;2.80;;
46230;SDS011;31949;51.404;-0.038;2023-05-23T14:45:13;4.07;;;1.98;;
46230;SDS011;31949;51.404;-0.038;2023-05-23T14:47:44;3.72;;;2.00;;
46230;SDS011;31949;51.404;-0.038;2023-05-23T14:50:12;9.13;;;2.38;;
46230;SDS011;31949;51.404;-0.038;2023-05-23T14:52:39;5.55;;;2.47;;
46230;SDS011;31949;51.404;-0.038;2023-05-23T14:55:07;6.18;;;2.45;;
46230;SDS011;31949;51.404;-0.038;2023-05-23T14:57:34;7.28;;;3.13;;
46230;SDS011;31949;51.404;-0.038;2023-05-23T15:00:02;5.60;;;1.95;;
46230;SDS011;31949;51.404;-0.038;2023-05-23T15:02:31;6.03;;;2.95;;
46230;SDS011;31949;51.404;-0.038;2023-05-23T15:04:59;5.53;;;2.42;;
46230;SDS011;31949;51.404;-0.038;2023-05-23T15:07:26;3.28;;;1.80;;
46230;SDS011;31949;51.404;-0.038;2023-05-23T15:09:53;6.93;;;2.15;;
46230;SDS011;31949;51.404;-0.038;2023-05-23T15:12:21;6.50;;;2.42;;
46230;SDS011;31949;51.404;-0.038;2023-05-23T15:14:48;4.88;;;2.25;;
46230;SDS011;31949;51.404;-0.038;2023-05-23T15:17:15;3.78;;;1.88;;